sensor_id;sensor_type;location;lat;lon;timestamp;P1;durP1;ratioP1;P2;durP2;ratioP2
31782;SDS011;18351;47.560;9.708;2023-02-03T00:00:34;8.95;;;5.13;;
31782;SDS011;18351;47.560;9.708;2023-02-03T00:03:00;7.13;;;5.40;;
31782;SDS011;18351;47.560;9.708;2023-02-03T00:05:26;7.18;;;4.50;;
31782;SDS011;18351;47.560;9.708;2023-02-03T00:07:52;6.68;;;4.75;;
31782;SDS011;18351;47.560;9.708;2023-02-03T00:10:18;6.15;;;4.60;;
31782;SDS011;18351;47.560;9.708;2023-02-03T00:12:50;10.88;;;5.07;;
31782;SDS011;18351;47.560;9.708;2023-02-03T00:15:20;6.15;;;4.70;;
31782;SDS011;18351;47.560;9.708;2023-02-03T00:17:47;7.03;;;4.70;;
31782;SDS011;18351;47.560;9.708;2023-02-03T00:20:12;8.35;;;4.53;;
31782;SDS011;18351;47.560;9.708;2023-02-03T00:22:38;5.82;;;4.53;;
31782;SDS011;18351;47.560;9.708;2023-02-03T00:25:04;5.70;;;4.25;;
31782;SDS011;18351;47.560;9.708;2023-02-03T00:27:30;7.05;;;4.78;;
31782;SDS011;18351;47.560;9.708;2023-02-03T00:29:56;6.88;;;4.18;;
31782;SDS011;18351;47.560;9.708;2023-02-03T00:32:22;7.10;;;4.75;;
31782;SDS011;18351;47.560;9.708;2023-02-03T00:34:47;6.88;;;4.53;;
31782;SDS011;18351;47.560;9.708;2023-02-03T00:37:13;7.03;;;4.55;;
31782;SDS011;18351;47.560;9.708;2023-02-03T00:39:38;4.88;;;4.32;;
31782;SDS011;18351;47.560;9.708;2023-02-03T00:42:04;5.38;;;4.45;;
31782;SDS011;18351;47.560;9.708;2023-02-03T00:44:30;6.28;;;4.63;;
31782;SDS011;18351;47.560;9.708;2023-02-03T00:46:56;6.63;;;5.00;;
31782;SDS011;18351;47.560;9.708;2023-02-03T00:49:22;5.70;;;4.50;;
31782;SDS011;18351;47.560;9.708;2023-02-03T00:51:47;8.52;;;5.00;;
31782;SDS011;18351;47.560;9.708;2023-02-03T00:54:13;9.07;;;5.60;;
31782;SDS011;18351;47.560;9.708;2023-02-03T00:56:39;7.80;;;5.43;;
31782;SDS011;18351;47.560;9.708;2023-02-03T00:59:05;9.98;;;5.22;;
31782;SDS011;18351;47.560;9.708;2023-02-03T01:01:31;10.93;;;4.78;;
31782;SDS011;18351;47.560;9.708;2023-02-03T01:03:57;6.20;;;4.15;;
31782;SDS011;18351;47.560;9.708;2023-02-03T01:06:23;8.80;;;5.18;;
31782;SDS011;18351;47.560;9.708;2023-02-03T01:08:49;7.63;;;5.22;;
31782;SDS011;18351;47.560;9.708;2023-02-03T01:11:16;8.13;;;5.07;;
31782;SDS011;18351;47.560;9.708;2023-02-03T01:13:44;7.20;;;5.15;;
31782;SDS011;18351;47.560;9.708;2023-02-03T01:16:10;6.10;;;4.97;;
31782;SDS011;18351;47.560;9.708;2023-02-03T01:18:37;6.68;;;4.53;;
31782;SDS011;18351;47.560;9.708;2023-02-03T01:21:04;6.30;;;4.80;;
31782;SDS011;18351;47.560;9.708;2023-02-03T01:23:50;6.97;;;4.85;;
31782;SDS011;18351;47.560;9.708;2023-02-03T01:26:17;7.90;;;5.32;;
31782;SDS011;18351;47.560;9.708;2023-02-03T01:28:51;10.98;;;4.43;;
31782;SDS011;18351;47.560;9.708;2023-02-03T01:31:23;6.50;;;4.22;;
31782;SDS011;18351;47.560;9.708;2023-02-03T01:33:51;7.65;;;4.63;;
31782;SDS011;18351;47.560;9.708;2023-02-03T01:36:18;9.80;;;4.63;;
31782;SDS011;18351;47.560;9.708;2023-02-03T01:38:45;6.68;;;4.20;;
31782;SDS011;18351;47.560;9.708;2023-02-03T01:41:12;8.73;;;4.22;;
31782;SDS011;18351;47.560;9.708;2023-02-03T01:43:44;5.85;;;3.92;;
31782;SDS011;18351;47.560;9.708;2023-02-03T01:48:59;6.60;;;3.63;;
31782;SDS011;18351;47.560;9.708;2023-02-03T01:52:02;4.72;;;3.70;;
31782;SDS011;18351;47.560;9.708;2023-02-03T01:54:29;10.50;;;3.72;;
31782;SDS011;18351;47.560;9.708;2023-02-03T01:57:01;6.07;;;3.33;;
31782;SDS011;18351;47.560;9.708;2023-02-03T01:59:30;10.63;;;3.42;;
31782;SDS011;18351;47.560;9.708;2023-02-03T02:01:58;4.78;;;2.58;;
31782;SDS011;18351;47.560;9.708;2023-02-03T02:04:25;7.55;;;3.00;;
31782;SDS011;18351;47.560;9.708;2023-02-03T02:06:58;5.20;;;3.08;;
31782;SDS011;18351;47.560;9.708;2023-02-03T02:09:24;5.45;;;2.83;;
31782;SDS011;18351;47.560;9.708;2023-02-03T02:11:50;8.07;;;3.15;;
31782;SDS011;18351;47.560;9.708;2023-02-03T02:14:16;11.15;;;3.22;;
31782;SDS011;18351;47.560;9.708;2023-02-03T02:16:46;11.48;;;3.15;;
31782;SDS011;18351;47.560;9.708;2023-02-03T02:35:24;5.05;;;2.80;;
31782;SDS011;18351;47.560;9.708;2023-02-03T02:38:47;9.10;;;3.28;;
31782;SDS011;18351;47.560;9.708;2023-02-03T02:41:17;5.47;;;2.97;;
31782;SDS011;18351;47.560;9.708;2023-02-03T02:46:47;7.75;;;3.00;;
31782;SDS011;18351;47.560;9.708;2023-02-03T02:49:27;6.13;;;2.97;;
31782;SDS011;18351;47.560;9.708;2023-02-03T02:52:07;4.47;;;2.45;;
31782;SDS011;18351;47.560;9.708;2023-02-03T02:54:36;6.65;;;2.53;;
31782;SDS011;18351;47.560;9.708;2023-02-03T02:57:05;5.68;;;2.30;;
31782;SDS011;18351;47.560;9.708;2023-02-03T02:59:35;7.28;;;2.80;;
31782;SDS011;18351;47.560;9.708;2023-02-03T03:02:01;8.90;;;2.95;;
31782;SDS011;18351;47.560;9.708;2023-02-03T03:04:28;3.03;;;2.70;;
31782;SDS011;18351;47.560;9.708;2023-02-03T03:10:00;9.73;;;2.88;;
31782;SDS011;18351;47.560;9.708;2023-02-03T03:12:31;7.60;;;2.92;;
31782;SDS011;18351;47.560;9.708;2023-02-03T03:15:02;7.90;;;3.50;;
31782;SDS011;18351;47.560;9.708;2023-02-03T03:17:32;8.27;;;3.45;;
31782;SDS011;18351;47.560;9.708;2023-02-03T03:20:03;8.77;;;4.18;;
31782;SDS011;18351;47.560;9.708;2023-02-03T03:22:33;4.07;;;3.58;;
31782;SDS011;18351;47.560;9.708;2023-02-03T03:25:08;7.82;;;4.80;;
31782;SDS011;18351;47.560;9.708;2023-02-03T03:27:40;5.75;;;4.88;;
31782;SDS011;18351;47.560;9.708;2023-02-03T03:30:11;7.53;;;5.30;;
31782;SDS011;18351;47.560;9.708;2023-02-03T03:32:42;9.55;;;5.40;;
31782;SDS011;18351;47.560;9.708;2023-02-03T03:35:08;10.10;;;5.85;;
31782;SDS011;18351;47.560;9.708;2023-02-03T03:37:40;11.23;;;6.75;;
31782;SDS011;18351;47.560;9.708;2023-02-03T03:40:11;8.82;;;6.25;;
31782;SDS011;18351;47.560;9.708;2023-02-03T03:42:46;9.10;;;5.88;;
31782;SDS011;18351;47.560;9.708;2023-02-03T03:45:23;10.52;;;5.90;;
31782;SDS011;18351;47.560;9.708;2023-02-03T03:48:06;10.23;;;6.32;;
31782;SDS011;18351;47.560;9.708;2023-02-03T03:50:41;7.97;;;6.03;;
31782;SDS011;18351;47.560;9.708;2023-02-03T03:53:09;8.15;;;6.50;;
31782;SDS011;18351;47.560;9.708;2023-02-03T03:55:37;10.90;;;6.10;;
31782;SDS011;18351;47.560;9.708;2023-02-03T03:58:07;7.07;;;6.05;;
31782;SDS011;18351;47.560;9.708;2023-02-03T04:00:37;9.52;;;5.75;;
31782;SDS011;18351;47.560;9.708;2023-02-03T04:03:19;11.68;;;6.18;;
31782;SDS011;18351;47.560;9.708;2023-02-03T04:05:48;8.68;;;5.95;;
31782;SDS011;18351;47.560;9.708;2023-02-03T04:08:13;8.40;;;5.97;;
31782;SDS011;18351;47.560;9.708;2023-02-03T04:10:40;7.47;;;5.72;;
31782;SDS011;18351;47.560;9.708;2023-02-03T04:13:07;11.68;;;6.97;;
31782;SDS011;18351;47.560;9.708;2023-02-03T04:15:33;8.80;;;5.90;;
31782;SDS011;18351;47.560;9.708;2023-02-03T04:17:59;7.47;;;6.35;;
31782;SDS011;18351;47.560;9.708;2023-02-03T04:20:26;8.18;;;5.97;;
31782;SDS011;18351;47.560;9.708;2023-02-03T04:22:52;8.68;;;6.30;;
31782;SDS011;18351;47.560;9.708;2023-02-03T04:25:18;7.18;;;5.80;;
31782;SDS011;18351;47.560;9.708;2023-02-03T04:27:44;8.02;;;5.93;;
31782;SDS011;18351;47.560;9.708;2023-02-03T04:30:10;9.60;;;6.15;;
31782;SDS011;18351;47.560;9.708;2023-02-03T04:32:36;6.78;;;6.03;;
31782;SDS011;18351;47.560;9.708;2023-02-03T04:35:02;7.95;;;6.35;;
31782;SDS011;18351;47.560;9.708;2023-02-03T04:37:29;8.45;;;6.25;;
31782;SDS011;18351;47.560;9.708;2023-02-03T04:39:54;6.50;;;5.45;;
31782;SDS011;18351;47.560;9.708;2023-02-03T04:42:21;11.57;;;6.10;;
31782;SDS011;18351;47.560;9.708;2023-02-03T04:44:47;8.80;;;6.65;;
31782;SDS011;18351;47.560;9.708;2023-02-03T04:47:13;8.80;;;6.47;;
31782;SDS011;18351;47.560;9.708;2023-02-03T04:49:40;10.18;;;6.15;;
31782;SDS011;18351;47.560;9.708;2023-02-03T04:52:05;12.95;;;6.82;;
31782;SDS011;18351;47.560;9.708;2023-02-03T04:54:31;9.25;;;6.15;;
31782;SDS011;18351;47.560;9.708;2023-02-03T04:56:58;8.88;;;5.57;;
31782;SDS011;18351;47.560;9.708;2023-02-03T04:59:23;8.35;;;5.90;;
31782;SDS011;18351;47.560;9.708;2023-02-03T05:01:49;10.90;;;7.03;;
31782;SDS011;18351;47.560;9.708;2023-02-03T05:04:14;9.98;;;6.40;;
31782;SDS011;18351;47.560;9.708;2023-02-03T05:06:40;9.90;;;6.75;;
31782;SDS011;18351;47.560;9.708;2023-02-03T05:09:05;9.13;;;6.15;;
31782;SDS011;18351;47.560;9.708;2023-02-03T05:11:31;8.25;;;6.20;;
31782;SDS011;18351;47.560;9.708;2023-02-03T05:13:57;9.80;;;6.28;;
31782;SDS011;18351;47.560;9.708;2023-02-03T05:16:23;10.75;;;7.55;;
31782;SDS011;18351;47.560;9.708;2023-02-03T05:18:48;15.00;;;10.07;;
31782;SDS011;18351;47.560;9.708;2023-02-03T05:21:14;17.65;;;10.80;;
31782;SDS011;18351;47.560;9.708;2023-02-03T05:23:39;23.05;;;12.43;;
31782;SDS011;18351;47.560;9.708;2023-02-03T05:26:05;21.20;;;12.07;;
31782;SDS011;18351;47.560;9.708;2023-02-03T05:28:31;24.33;;;11.23;;
31782;SDS011;18351;47.560;9.708;2023-02-03T05:31:00;12.82;;;7.88;;
31782;SDS011;18351;47.560;9.708;2023-02-03T05:33:27;17.23;;;5.88;;
31782;SDS011;18351;47.560;9.708;2023-02-03T05:35:53;15.23;;;5.75;;
31782;SDS011;18351;47.560;9.708;2023-02-03T05:38:18;9.20;;;4.57;;
31782;SDS011;18351;47.560;9.708;2023-02-03T05:40:48;12.23;;;3.55;;
31782;SDS011;18351;47.560;9.708;2023-02-03T05:43:32;12.07;;;3.60;;
31782;SDS011;18351;47.560;9.708;2023-02-03T05:45:59;7.75;;;3.47;;
31782;SDS011;18351;47.560;9.708;2023-02-03T05:48:29;5.97;;;2.88;;
31782;SDS011;18351;47.560;9.708;2023-02-03T05:50:55;8.30;;;3.22;;
31782;SDS011;18351;47.560;9.708;2023-02-03T05:53:21;6.20;;;2.80;;
31782;SDS011;18351;47.560;9.708;2023-02-03T05:55:47;5.72;;;2.60;;
31782;SDS011;18351;47.560;9.708;2023-02-03T05:58:12;6.68;;;2.80;;
31782;SDS011;18351;47.560;9.708;2023-02-03T06:00:38;11.10;;;3.60;;
31782;SDS011;18351;47.560;9.708;2023-02-03T06:03:03;8.13;;;3.20;;
31782;SDS011;18351;47.560;9.708;2023-02-03T06:05:30;6.82;;;2.90;;
31782;SDS011;18351;47.560;9.708;2023-02-03T06:07:56;8.00;;;3.33;;
31782;SDS011;18351;47.560;9.708;2023-02-03T06:10:22;9.02;;;2.88;;
31782;SDS011;18351;47.560;9.708;2023-02-03T06:12:47;6.65;;;2.92;;
31782;SDS011;18351;47.560;9.708;2023-02-03T06:15:14;6.32;;;2.72;;
31782;SDS011;18351;47.560;9.708;2023-02-03T06:17:42;4.95;;;2.88;;
31782;SDS011;18351;47.560;9.708;2023-02-03T06:20:12;4.78;;;2.65;;
31782;SDS011;18351;47.560;9.708;2023-02-03T06:22:39;7.20;;;2.90;;
31782;SDS011;18351;47.560;9.708;2023-02-03T06:25:05;3.67;;;2.63;;
31782;SDS011;18351;47.560;9.708;2023-02-03T06:27:30;8.93;;;4.00;;
31782;SDS011;18351;47.560;9.708;2023-02-03T06:29:56;7.53;;;3.28;;
31782;SDS011;18351;47.560;9.708;2023-02-03T06:32:21;10.73;;;3.83;;
31782;SDS011;18351;47.560;9.708;2023-02-03T06:34:47;7.15;;;2.95;;
31782;SDS011;18351;47.560;9.708;2023-02-03T06:37:13;6.88;;;2.88;;
31782;SDS011;18351;47.560;9.708;2023-02-03T06:39:39;9.00;;;2.97;;
31782;SDS011;18351;47.560;9.708;2023-02-03T06:42:04;8.55;;;3.75;;
31782;SDS011;18351;47.560;9.708;2023-02-03T06:44:30;9.02;;;4.68;;
31782;SDS011;18351;47.560;9.708;2023-02-03T06:46:56;8.70;;;4.68;;
31782;SDS011;18351;47.560;9.708;2023-02-03T06:49:22;9.60;;;4.82;;
31782;SDS011;18351;47.560;9.708;2023-02-03T06:51:48;13.82;;;6.20;;
31782;SDS011;18351;47.560;9.708;2023-02-03T06:54:13;10.18;;;5.20;;
31782;SDS011;18351;47.560;9.708;2023-02-03T06:56:39;9.50;;;4.97;;
31782;SDS011;18351;47.560;9.708;2023-02-03T06:59:05;9.82;;;5.72;;
31782;SDS011;18351;47.560;9.708;2023-02-03T07:01:30;9.05;;;5.30;;
31782;SDS011;18351;47.560;9.708;2023-02-03T07:03:56;11.25;;;5.72;;
31782;SDS011;18351;47.560;9.708;2023-02-03T07:06:25;14.32;;;5.53;;
31782;SDS011;18351;47.560;9.708;2023-02-03T07:08:54;9.10;;;3.80;;
31782;SDS011;18351;47.560;9.708;2023-02-03T07:11:23;6.57;;;3.20;;
31782;SDS011;18351;47.560;9.708;2023-02-03T07:13:49;5.35;;;2.80;;
31782;SDS011;18351;47.560;9.708;2023-02-03T07:16:15;6.07;;;3.40;;
31782;SDS011;18351;47.560;9.708;2023-02-03T07:18:41;8.13;;;2.90;;
31782;SDS011;18351;47.560;9.708;2023-02-03T07:21:06;6.65;;;3.42;;
31782;SDS011;18351;47.560;9.708;2023-02-03T07:23:32;9.52;;;3.70;;
31782;SDS011;18351;47.560;9.708;2023-02-03T07:25:58;9.57;;;2.70;;
31782;SDS011;18351;47.560;9.708;2023-02-03T07:28:24;5.10;;;2.70;;
31782;SDS011;18351;47.560;9.708;2023-02-03T07:30:50;7.40;;;2.80;;
31782;SDS011;18351;47.560;9.708;2023-02-03T07:33:15;6.95;;;2.78;;
31782;SDS011;18351;47.560;9.708;2023-02-03T07:35:41;10.13;;;3.90;;
31782;SDS011;18351;47.560;9.708;2023-02-03T07:38:06;11.95;;;3.75;;
31782;SDS011;18351;47.560;9.708;2023-02-03T07:40:32;9.93;;;3.85;;
31782;SDS011;18351;47.560;9.708;2023-02-03T07:42:57;8.23;;;3.72;;
31782;SDS011;18351;47.560;9.708;2023-02-03T07:45:24;7.53;;;2.75;;
31782;SDS011;18351;47.560;9.708;2023-02-03T07:47:50;7.90;;;3.97;;
31782;SDS011;18351;47.560;9.708;2023-02-03T07:50:15;14.63;;;6.80;;
31782;SDS011;18351;47.560;9.708;2023-02-03T07:52:41;12.32;;;6.63;;
31782;SDS011;18351;47.560;9.708;2023-02-03T07:55:07;10.77;;;6.82;;
31782;SDS011;18351;47.560;9.708;2023-02-03T07:57:33;11.18;;;6.10;;
31782;SDS011;18351;47.560;9.708;2023-02-03T07:59:58;11.55;;;6.85;;
31782;SDS011;18351;47.560;9.708;2023-02-03T08:02:24;13.80;;;6.72;;
31782;SDS011;18351;47.560;9.708;2023-02-03T08:04:50;15.45;;;7.22;;
31782;SDS011;18351;47.560;9.708;2023-02-03T08:07:15;9.15;;;6.95;;
31782;SDS011;18351;47.560;9.708;2023-02-03T08:09:41;12.55;;;7.25;;
31782;SDS011;18351;47.560;9.708;2023-02-03T08:12:06;10.35;;;6.32;;
31782;SDS011;18351;47.560;9.708;2023-02-03T08:14:32;13.20;;;6.85;;
31782;SDS011;18351;47.560;9.708;2023-02-03T08:16:57;12.15;;;6.88;;
31782;SDS011;18351;47.560;9.708;2023-02-03T08:19:24;10.65;;;6.93;;
31782;SDS011;18351;47.560;9.708;2023-02-03T08:21:49;10.13;;;6.53;;
31782;SDS011;18351;47.560;9.708;2023-02-03T08:24:15;10.90;;;7.22;;
31782;SDS011;18351;47.560;9.708;2023-02-03T08:26:41;13.18;;;7.60;;
31782;SDS011;18351;47.560;9.708;2023-02-03T08:29:06;13.40;;;6.68;;
31782;SDS011;18351;47.560;9.708;2023-02-03T08:31:32;9.45;;;6.80;;
31782;SDS011;18351;47.560;9.708;2023-02-03T08:33:57;8.85;;;6.45;;
31782;SDS011;18351;47.560;9.708;2023-02-03T08:36:23;11.02;;;6.03;;
31782;SDS011;18351;47.560;9.708;2023-02-03T08:38:49;7.68;;;5.30;;
31782;SDS011;18351;47.560;9.708;2023-02-03T08:41:15;6.15;;;4.80;;
31782;SDS011;18351;47.560;9.708;2023-02-03T08:43:42;7.55;;;5.05;;
31782;SDS011;18351;47.560;9.708;2023-02-03T08:46:09;8.13;;;4.75;;
31782;SDS011;18351;47.560;9.708;2023-02-03T08:48:35;8.63;;;5.28;;
31782;SDS011;18351;47.560;9.708;2023-02-03T08:51:01;6.75;;;5.25;;
31782;SDS011;18351;47.560;9.708;2023-02-03T08:53:33;9.25;;;5.50;;
31782;SDS011;18351;47.560;9.708;2023-02-03T08:58:31;10.38;;;5.05;;
31782;SDS011;18351;47.560;9.708;2023-02-03T09:01:10;9.63;;;5.25;;
31782;SDS011;18351;47.560;9.708;2023-02-03T09:03:38;9.48;;;5.45;;
31782;SDS011;18351;47.560;9.708;2023-02-03T09:06:04;8.45;;;5.18;;
31782;SDS011;18351;47.560;9.708;2023-02-03T09:08:31;6.85;;;4.93;;
31782;SDS011;18351;47.560;9.708;2023-02-03T09:10:58;8.77;;;5.75;;
31782;SDS011;18351;47.560;9.708;2023-02-03T09:13:23;11.48;;;5.15;;
31782;SDS011;18351;47.560;9.708;2023-02-03T09:15:49;11.98;;;5.10;;
31782;SDS011;18351;47.560;9.708;2023-02-03T09:18:15;6.13;;;4.53;;
31782;SDS011;18351;47.560;9.708;2023-02-03T09:20:40;7.78;;;4.35;;
31782;SDS011;18351;47.560;9.708;2023-02-03T09:23:06;7.53;;;4.15;;
31782;SDS011;18351;47.560;9.708;2023-02-03T09:25:31;6.95;;;4.35;;
31782;SDS011;18351;47.560;9.708;2023-02-03T09:27:57;10.13;;;4.22;;
31782;SDS011;18351;47.560;9.708;2023-02-03T09:30:25;8.15;;;4.10;;
31782;SDS011;18351;47.560;9.708;2023-02-03T09:32:52;12.35;;;4.40;;
31782;SDS011;18351;47.560;9.708;2023-02-03T09:35:20;5.78;;;3.80;;
31782;SDS011;18351;47.560;9.708;2023-02-03T09:37:46;8.32;;;4.25;;
31782;SDS011;18351;47.560;9.708;2023-02-03T09:40:16;7.45;;;4.47;;
31782;SDS011;18351;47.560;9.708;2023-02-03T09:43:01;9.30;;;5.18;;
31782;SDS011;18351;47.560;9.708;2023-02-03T09:45:44;7.75;;;4.30;;
31782;SDS011;18351;47.560;9.708;2023-02-03T09:48:20;8.88;;;4.13;;
31782;SDS011;18351;47.560;9.708;2023-02-03T09:50:48;11.40;;;4.65;;
31782;SDS011;18351;47.560;9.708;2023-02-03T09:53:29;8.57;;;4.55;;
31782;SDS011;18351;47.560;9.708;2023-02-03T09:56:31;5.22;;;4.15;;
31782;SDS011;18351;47.560;9.708;2023-02-03T09:58:56;9.13;;;2.90;;
31782;SDS011;18351;47.560;9.708;2023-02-03T10:01:23;5.63;;;3.30;;
31782;SDS011;18351;47.560;9.708;2023-02-03T10:03:56;4.32;;;2.63;;
31782;SDS011;18351;47.560;9.708;2023-02-03T10:09:01;4.95;;;1.50;;
31782;SDS011;18351;47.560;9.708;2023-02-03T10:11:49;2.58;;;1.38;;
31782;SDS011;18351;47.560;9.708;2023-02-03T10:19:41;1.80;;;1.42;;
31782;SDS011;18351;47.560;9.708;2023-02-03T10:22:19;3.53;;;1.40;;
31782;SDS011;18351;47.560;9.708;2023-02-03T10:24:51;4.50;;;1.50;;
31782;SDS011;18351;47.560;9.708;2023-02-03T10:27:23;4.10;;;1.55;;
31782;SDS011;18351;47.560;9.708;2023-02-03T10:29:52;1.73;;;1.63;;
31782;SDS011;18351;47.560;9.708;2023-02-03T10:32:26;2.40;;;1.83;;
31782;SDS011;18351;47.560;9.708;2023-02-03T10:34:52;2.58;;;1.35;;
31782;SDS011;18351;47.560;9.708;2023-02-03T10:37:37;2.03;;;1.50;;
31782;SDS011;18351;47.560;9.708;2023-02-03T10:40:09;1.98;;;1.20;;
31782;SDS011;18351;47.560;9.708;2023-02-03T10:42:40;5.55;;;1.60;;
31782;SDS011;18351;47.560;9.708;2023-02-03T10:45:27;2.03;;;1.50;;
31782;SDS011;18351;47.560;9.708;2023-02-03T10:47:55;3.10;;;1.65;;
31782;SDS011;18351;47.560;9.708;2023-02-03T10:50:22;3.45;;;1.23;;
31782;SDS011;18351;47.560;9.708;2023-02-03T10:53:18;1.90;;;1.20;;
31782;SDS011;18351;47.560;9.708;2023-02-03T10:55:58;3.10;;;1.30;;
31782;SDS011;18351;47.560;9.708;2023-02-03T10:58:36;6.55;;;1.27;;
31782;SDS011;18351;47.560;9.708;2023-02-03T11:01:08;3.78;;;1.50;;
31782;SDS011;18351;47.560;9.708;2023-02-03T11:03:35;4.78;;;1.58;;
31782;SDS011;18351;47.560;9.708;2023-02-03T11:06:04;3.53;;;1.40;;
31782;SDS011;18351;47.560;9.708;2023-02-03T11:08:41;1.58;;;1.35;;
31782;SDS011;18351;47.560;9.708;2023-02-03T11:11:13;2.72;;;1.25;;
31782;SDS011;18351;47.560;9.708;2023-02-03T11:13:44;2.45;;;1.55;;
31782;SDS011;18351;47.560;9.708;2023-02-03T11:16:12;4.65;;;1.60;;
31782;SDS011;18351;47.560;9.708;2023-02-03T11:21:43;4.18;;;1.70;;
31782;SDS011;18351;47.560;9.708;2023-02-03T11:24:28;2.08;;;1.45;;
31782;SDS011;18351;47.560;9.708;2023-02-03T11:27:15;3.08;;;1.77;;
31782;SDS011;18351;47.560;9.708;2023-02-03T11:29:44;2.50;;;1.48;;
31782;SDS011;18351;47.560;9.708;2023-02-03T11:34:46;6.18;;;2.75;;
31782;SDS011;18351;47.560;9.708;2023-02-03T11:40:13;4.97;;;2.00;;
31782;SDS011;18351;47.560;9.708;2023-02-03T11:48:17;4.70;;;2.20;;
31782;SDS011;18351;47.560;9.708;2023-02-03T11:50:59;3.42;;;2.00;;
31782;SDS011;18351;47.560;9.708;2023-02-03T11:53:47;5.50;;;2.15;;
31782;SDS011;18351;47.560;9.708;2023-02-03T12:04:41;9.18;;;3.33;;
31782;SDS011;18351;47.560;9.708;2023-02-03T12:10:26;6.25;;;2.45;;
31782;SDS011;18351;47.560;9.708;2023-02-03T12:18:14;7.68;;;2.25;;
31782;SDS011;18351;47.560;9.708;2023-02-03T12:23:49;4.80;;;2.30;;
31782;SDS011;18351;47.560;9.708;2023-02-03T12:26:23;4.68;;;2.03;;
31782;SDS011;18351;47.560;9.708;2023-02-03T12:28:55;3.22;;;1.75;;
31782;SDS011;18351;47.560;9.708;2023-02-03T12:37:07;8.38;;;2.42;;
31782;SDS011;18351;47.560;9.708;2023-02-03T12:42:29;8.52;;;2.00;;
31782;SDS011;18351;47.560;9.708;2023-02-03T12:47:39;5.75;;;1.70;;
31782;SDS011;18351;47.560;9.708;2023-02-03T12:50:21;6.05;;;1.95;;
31782;SDS011;18351;47.560;9.708;2023-02-03T12:52:57;7.93;;;2.22;;
31782;SDS011;18351;47.560;9.708;2023-02-03T12:55:29;3.88;;;1.80;;
31782;SDS011;18351;47.560;9.708;2023-02-03T12:58:01;5.90;;;1.90;;
31782;SDS011;18351;47.560;9.708;2023-02-03T13:00:39;8.10;;;2.25;;
31782;SDS011;18351;47.560;9.708;2023-02-03T13:03:26;5.75;;;2.08;;
31782;SDS011;18351;47.560;9.708;2023-02-03T13:06:06;39.50;;;17.23;;
31782;SDS011;18351;47.560;9.708;2023-02-03T13:09:01;3.53;;;2.58;;
31782;SDS011;18351;47.560;9.708;2023-02-03T13:11:45;5.10;;;2.67;;
31782;SDS011;18351;47.560;9.708;2023-02-03T13:14:27;7.15;;;2.90;;
31782;SDS011;18351;47.560;9.708;2023-02-03T13:19:41;6.38;;;3.78;;
31782;SDS011;18351;47.560;9.708;2023-02-03T13:22:12;6.13;;;2.70;;
31782;SDS011;18351;47.560;9.708;2023-02-03T13:24:44;12.52;;;3.80;;
31782;SDS011;18351;47.560;9.708;2023-02-03T13:32:52;6.97;;;2.17;;
31782;SDS011;18351;47.560;9.708;2023-02-03T13:35:29;5.57;;;2.35;;
31782;SDS011;18351;47.560;9.708;2023-02-03T13:41:10;2.83;;;1.95;;
31782;SDS011;18351;47.560;9.708;2023-02-03T13:43:47;11.70;;;2.35;;
31782;SDS011;18351;47.560;9.708;2023-02-03T13:46:25;8.18;;;3.88;;
31782;SDS011;18351;47.560;9.708;2023-02-03T13:49:00;5.30;;;2.47;;
31782;SDS011;18351;47.560;9.708;2023-02-03T13:51:37;7.03;;;2.75;;
31782;SDS011;18351;47.560;9.708;2023-02-03T13:54:25;5.18;;;2.78;;
31782;SDS011;18351;47.560;9.708;2023-02-03T13:56:54;4.95;;;2.47;;
31782;SDS011;18351;47.560;9.708;2023-02-03T14:17:53;7.10;;;2.33;;
31782;SDS011;18351;47.560;9.708;2023-02-03T14:25:30;4.50;;;2.58;;
31782;SDS011;18351;47.560;9.708;2023-02-03T14:28:18;2.00;;;1.73;;
31782;SDS011;18351;47.560;9.708;2023-02-03T14:34:02;3.45;;;1.77;;
31782;SDS011;18351;47.560;9.708;2023-02-03T14:36:51;3.97;;;1.67;;
31782;SDS011;18351;47.560;9.708;2023-02-03T14:41:49;5.90;;;2.30;;
31782;SDS011;18351;47.560;9.708;2023-02-03T14:56:03;7.53;;;2.53;;
31782;SDS011;18351;47.560;9.708;2023-02-03T14:58:41;8.65;;;2.17;;
31782;SDS011;18351;47.560;9.708;2023-02-03T15:01:26;2.92;;;1.95;;
31782;SDS011;18351;47.560;9.708;2023-02-03T15:09:20;7.03;;;2.37;;
31782;SDS011;18351;47.560;9.708;2023-02-03T15:12:21;2.77;;;1.83;;
31782;SDS011;18351;47.560;9.708;2023-02-03T15:14:50;7.15;;;2.50;;
31782;SDS011;18351;47.560;9.708;2023-02-03T15:17:23;2.20;;;2.00;;
31782;SDS011;18351;47.560;9.708;2023-02-03T15:19:51;2.95;;;2.00;;
31782;SDS011;18351;47.560;9.708;2023-02-03T15:22:18;3.50;;;2.00;;
31782;SDS011;18351;47.560;9.708;2023-02-03T15:24:46;5.70;;;2.30;;
31782;SDS011;18351;47.560;9.708;2023-02-03T15:27:20;6.38;;;2.63;;
31782;SDS011;18351;47.560;9.708;2023-02-03T15:29:50;3.30;;;1.90;;
31782;SDS011;18351;47.560;9.708;2023-02-03T15:32:23;1.48;;;1.38;;
31782;SDS011;18351;47.560;9.708;2023-02-03T15:34:58;4.20;;;2.47;;
31782;SDS011;18351;47.560;9.708;2023-02-03T15:37:27;9.75;;;2.17;;
31782;SDS011;18351;47.560;9.708;2023-02-03T15:42:34;5.32;;;2.15;;
31782;SDS011;18351;47.560;9.708;2023-02-03T15:45:06;6.03;;;2.15;;
31782;SDS011;18351;47.560;9.708;2023-02-03T15:47:46;4.72;;;2.55;;
31782;SDS011;18351;47.560;9.708;2023-02-03T15:50:34;3.15;;;2.13;;
31782;SDS011;18351;47.560;9.708;2023-02-03T15:53:03;2.60;;;1.98;;
31782;SDS011;18351;47.560;9.708;2023-02-03T15:55:49;6.97;;;2.30;;
31782;SDS011;18351;47.560;9.708;2023-02-03T15:58:22;5.82;;;2.00;;
31782;SDS011;18351;47.560;9.708;2023-02-03T16:00:51;6.85;;;2.30;;
31782;SDS011;18351;47.560;9.708;2023-02-03T16:03:21;3.10;;;2.20;;
31782;SDS011;18351;47.560;9.708;2023-02-03T16:06:33;8.68;;;2.35;;
31782;SDS011;18351;47.560;9.708;2023-02-03T16:09:00;4.57;;;2.83;;
31782;SDS011;18351;47.560;9.708;2023-02-03T16:11:27;6.43;;;3.83;;
31782;SDS011;18351;47.560;9.708;2023-02-03T16:14:05;10.80;;;5.50;;
31782;SDS011;18351;47.560;9.708;2023-02-03T16:16:53;12.93;;;5.05;;
31782;SDS011;18351;47.560;9.708;2023-02-03T16:19:20;11.07;;;5.60;;
31782;SDS011;18351;47.560;9.708;2023-02-03T16:35:52;9.70;;;5.70;;
31782;SDS011;18351;47.560;9.708;2023-02-03T16:38:36;6.03;;;3.10;;
31782;SDS011;18351;47.560;9.708;2023-02-03T16:44:04;4.18;;;2.70;;
31782;SDS011;18351;47.560;9.708;2023-02-03T16:46:48;5.55;;;3.10;;
31782;SDS011;18351;47.560;9.708;2023-02-03T16:49:33;6.25;;;3.00;;
31782;SDS011;18351;47.560;9.708;2023-02-03T16:54:42;8.98;;;5.32;;
31782;SDS011;18351;47.560;9.708;2023-02-03T16:57:08;5.75;;;3.60;;
31782;SDS011;18351;47.560;9.708;2023-02-03T16:59:33;13.00;;;7.47;;
31782;SDS011;18351;47.560;9.708;2023-02-03T17:01:59;5.28;;;3.58;;
31782;SDS011;18351;47.560;9.708;2023-02-03T17:04:25;8.02;;;3.72;;
31782;SDS011;18351;47.560;9.708;2023-02-03T17:06:50;10.55;;;3.88;;
31782;SDS011;18351;47.560;9.708;2023-02-03T17:09:16;11.13;;;4.63;;
31782;SDS011;18351;47.560;9.708;2023-02-03T17:11:47;8.60;;;5.05;;
31782;SDS011;18351;47.560;9.708;2023-02-03T17:14:13;4.22;;;3.33;;
31782;SDS011;18351;47.560;9.708;2023-02-03T17:16:38;8.45;;;3.95;;
31782;SDS011;18351;47.560;9.708;2023-02-03T17:19:04;12.68;;;4.05;;
31782;SDS011;18351;47.560;9.708;2023-02-03T17:21:29;9.07;;;5.70;;
31782;SDS011;18351;47.560;9.708;2023-02-03T17:23:56;7.43;;;3.80;;
31782;SDS011;18351;47.560;9.708;2023-02-03T17:26:22;5.28;;;2.92;;
31782;SDS011;18351;47.560;9.708;2023-02-03T17:28:48;5.53;;;2.83;;
31782;SDS011;18351;47.560;9.708;2023-02-03T17:31:14;9.35;;;4.72;;
31782;SDS011;18351;47.560;9.708;2023-02-03T17:33:41;5.80;;;3.40;;
31782;SDS011;18351;47.560;9.708;2023-02-03T17:36:12;8.48;;;3.72;;
31782;SDS011;18351;47.560;9.708;2023-02-03T17:38:43;13.00;;;3.22;;
31782;SDS011;18351;47.560;9.708;2023-02-03T17:41:11;4.63;;;2.70;;
31782;SDS011;18351;47.560;9.708;2023-02-03T17:43:39;8.43;;;2.83;;